Camas Valley, Oregon
Current Conditions -  °F | °C
As of 3:53 PM on Friday 21 Nov 2014 (Local Time) from KRBG Reporting Station
Overcast Overcast  
Wind Chill: 58°   Ceiling: 4400
Heat Index: 58°   Visibility: 10mi
Dew Point: 48°   Wind: 13mph
Humidity: 70%   Direction: 160°SSE
Pressure: 29.72"   Gusts: NA
Location:  43.03°N, 123.68°W
Report Text: KRBG 212353Z AUTO 16011KT 10SM BKN044 BKN050 OVC070 14/09 A2972 RMK AO2 RAE05 SLP064 P0000 60006 T01440089 10144 20111 56019 TSNO
Loading
Personal Weather Stations






























Interactive Weather Map New forecast layout! Learn more

10-Day Weather Forecast

Advertisements
Track Severe Weather on mobile